createdAt,value
2018-09-05T00:02:10.027Z,28.87
2018-09-05T00:04:39.711Z,27.67
2018-09-05T00:07:09.407Z,27.95
2018-09-05T00:09:39.095Z,24.63
2018-09-05T00:12:08.819Z,28.45
2018-09-05T00:14:38.549Z,25.52
2018-09-05T00:17:08.267Z,24.23
2018-09-05T00:19:37.958Z,23.15
2018-09-05T00:22:07.951Z,26.07
2018-09-05T00:24:37.655Z,22.55
2018-09-05T00:27:07.370Z,21.60
2018-09-05T00:29:37.112Z,21.80
2018-09-05T00:32:06.815Z,26.57
2018-09-05T00:34:36.494Z,19.52
2018-09-05T00:37:06.272Z,21.75
2018-09-05T00:39:35.966Z,20.68
2018-09-05T00:42:05.707Z,20.25
2018-09-05T00:44:35.383Z,20.23
2018-09-05T00:47:05.150Z,19.87
2018-09-05T00:49:34.846Z,19.55
2018-09-05T00:52:04.588Z,18.23
2018-09-05T00:54:34.283Z,19.52
2018-09-05T00:57:04.054Z,19.95
2018-09-05T00:59:33.763Z,21.15
2018-09-05T01:02:03.517Z,19.40
2018-09-05T01:04:33.250Z,20.10
2018-09-05T01:07:12.925Z,20.00
2018-09-05T01:09:42.632Z,20.52
2018-09-05T01:12:12.338Z,20.72
2018-09-05T01:14:42.051Z,21.52
2018-09-05T01:17:12.073Z,25.23
2018-09-05T01:19:41.831Z,23.15
2018-09-05T01:22:11.501Z,25.65
2018-09-05T01:24:41.222Z,25.57
2018-09-05T01:27:11.615Z,23.42
2018-09-05T01:29:41.970Z,22.37
2018-09-05T01:32:12.391Z,21.97
2018-09-05T01:34:42.751Z,22.42
2018-09-05T01:37:12.435Z,21.27
2018-09-05T01:39:42.148Z,20.55
2018-09-05T01:42:11.886Z,22.50
2018-09-05T01:44:41.881Z,23.87
2018-09-05T01:47:11.588Z,21.68
2018-09-05T01:49:41.287Z,24.32
2018-09-05T01:52:10.982Z,23.65
2018-09-05T01:54:40.708Z,22.07
2018-09-05T01:57:10.383Z,23.87
2018-09-05T01:59:40.133Z,23.65
2018-09-05T02:02:10.158Z,22.17
2018-09-05T02:04:39.863Z,21.90
2018-09-05T02:07:09.542Z,19.85
2018-09-05T02:09:39.226Z,20.25
2018-09-05T02:12:08.894Z,20.32
2018-09-05T02:14:38.592Z,21.70
2018-09-05T02:17:08.311Z,18.75
2018-09-05T02:19:37.997Z,22.45
2018-09-05T02:22:07.702Z,20.20
2018-09-05T02:24:37.402Z,20.92
2018-09-05T02:27:07.522Z,20.08
2018-09-05T02:29:37.251Z,19.50
2018-09-05T02:32:06.959Z,19.23
2018-09-05T02:34:36.670Z,17.75
2018-09-05T02:37:06.392Z,20.57
2018-09-05T02:39:36.088Z,20.60
2018-09-05T02:42:06.119Z,21.37
2018-09-05T02:44:35.960Z,20.70
2018-09-05T02:47:05.640Z,23.22
2018-09-05T02:49:35.350Z,22.80
2018-09-05T02:52:05.121Z,21.07
2018-09-05T02:54:34.818Z,19.92
2018-09-05T02:57:04.502Z,19.10
2018-09-05T02:59:34.199Z,19.07
2018-09-05T03:02:03.935Z,19.52
2018-09-05T03:04:33.714Z,21.02
2018-09-05T03:07:03.438Z,17.75
2018-09-05T03:09:33.123Z,22.15
2018-09-05T03:12:02.812Z,22.27
2018-09-05T03:14:32.500Z,19.55
2018-09-05T03:17:02.211Z,19.70
2018-09-05T03:19:31.903Z,17.73
2018-09-05T03:22:01.598Z,19.20
2018-09-05T03:24:31.334Z,18.80
2018-09-05T03:27:01.043Z,17.73
2018-09-05T03:29:30.762Z,20.35
2018-09-05T03:32:00.703Z,19.37
2018-09-05T03:34:30.451Z,19.07
2018-09-05T03:37:00.134Z,19.50
2018-09-05T03:39:29.819Z,19.05
2018-09-05T03:41:59.550Z,19.90
2018-09-05T03:44:29.225Z,19.82
2018-09-05T03:46:58.931Z,20.30
2018-09-05T03:49:28.599Z,19.82
2018-09-05T03:51:58.315Z,17.95
2018-09-05T03:54:28.019Z,18.32
2018-09-05T03:56:57.797Z,17.62
2018-09-05T03:59:27.479Z,19.52
2018-09-05T04:01:57.186Z,17.17
2018-09-05T04:04:26.882Z,17.35
2018-09-05T04:06:56.609Z,17.23
2018-09-05T04:09:26.322Z,17.73
2018-09-05T04:11:56.069Z,18.62
2018-09-05T04:14:25.934Z,19.65
2018-09-05T04:16:55.707Z,20.40
2018-09-05T04:19:25.401Z,19.92
2018-09-05T04:21:55.317Z,17.62
2018-09-05T04:24:25.191Z,23.15
2018-09-05T04:26:55.220Z,23.07
2018-09-05T04:29:24.953Z,18.55
2018-09-05T04:31:54.807Z,20.80
2018-09-05T04:34:24.483Z,22.37
2018-09-05T04:36:54.187Z,20.57
2018-09-05T04:39:23.880Z,22.82
2018-09-05T04:41:53.633Z,19.35
2018-09-05T04:44:23.314Z,25.57
2018-09-05T04:46:53.006Z,22.85
2018-09-05T04:49:22.743Z,24.90
2018-09-05T04:51:52.511Z,19.02
2018-09-05T04:54:22.210Z,22.98
2018-09-05T04:56:51.958Z,23.45
2018-09-05T04:59:21.686Z,22.13
2018-09-05T05:01:51.415Z,21.48
2018-09-05T05:04:21.100Z,21.45
2018-09-05T05:06:50.779Z,20.45
2018-09-05T05:09:20.494Z,18.45
2018-09-05T05:11:50.187Z,17.50
2018-09-05T05:14:19.865Z,21.52
2018-09-05T05:16:49.603Z,17.87
2018-09-05T05:19:19.295Z,20.15
2018-09-05T05:21:48.999Z,17.15
2018-09-05T05:24:18.675Z,18.73
2018-09-05T05:26:48.737Z,15.50
2018-09-05T05:29:18.443Z,19.80
2018-09-05T05:31:48.247Z,18.87
2018-09-05T05:34:18.479Z,17.60
2018-09-05T05:36:48.234Z,20.23
2018-09-05T05:39:17.908Z,18.40
2018-09-05T05:41:47.609Z,19.00
2018-09-05T05:44:17.326Z,21.77
2018-09-05T05:46:47.077Z,22.52
2018-09-05T05:49:16.924Z,19.92
2018-09-05T05:51:46.619Z,22.22
2018-09-05T05:54:16.295Z,18.60
2018-09-05T05:56:45.991Z,23.60
2018-09-05T05:59:15.670Z,20.50
2018-09-05T06:01:45.495Z,22.42
2018-09-05T06:04:15.199Z,22.20
2018-09-05T06:06:44.915Z,24.57
2018-09-05T06:09:14.643Z,24.27
2018-09-05T06:11:44.410Z,24.80
2018-09-05T06:14:14.115Z,22.20
2018-09-05T06:16:43.875Z,21.30
2018-09-05T06:19:13.578Z,21.95
2018-09-05T06:21:43.267Z,21.97
2018-09-05T06:24:12.990Z,21.30
2018-09-05T06:26:42.688Z,22.73
2018-09-05T06:29:12.482Z,23.10
2018-09-05T06:31:42.155Z,21.85
2018-09-05T06:34:11.911Z,19.98
2018-09-05T06:36:41.766Z,21.55
2018-09-05T06:39:11.606Z,19.42
2018-09-05T06:41:41.471Z,23.70
2018-09-05T06:44:11.172Z,21.45
2018-09-05T06:46:40.919Z,20.57
2018-09-05T06:49:10.642Z,23.92
2018-09-05T06:51:40.316Z,23.15
2018-09-05T06:54:09.999Z,24.90
2018-09-05T06:56:39.671Z,26.77
2018-09-05T06:59:09.354Z,26.95
2018-09-05T07:01:39.062Z,20.92
2018-09-05T07:04:08.747Z,25.65
2018-09-05T07:06:38.464Z,25.15
2018-09-05T07:09:11.699Z,26.97
2018-09-05T07:11:41.686Z,26.65
2018-09-05T07:14:11.391Z,26.85
2018-09-05T07:16:41.283Z,26.77
2018-09-05T07:19:12.212Z,26.97
2018-09-05T07:21:42.227Z,26.77
2018-09-05T07:24:11.916Z,27.42
2018-09-05T07:26:41.583Z,26.07
2018-09-05T07:29:11.299Z,26.02
2018-09-05T07:31:40.956Z,26.30
2018-09-05T07:34:10.642Z,21.90
2018-09-05T07:36:40.339Z,29.30
2018-09-05T07:39:10.557Z,30.85
2018-09-05T07:41:40.661Z,29.15
2018-09-05T07:44:10.356Z,30.30
2018-09-05T07:46:40.031Z,30.25
2018-09-05T07:49:10.283Z,30.88
2018-09-05T07:51:39.990Z,32.42
2018-09-05T07:54:09.703Z,32.58
2018-09-05T07:56:39.391Z,32.30
2018-09-05T07:59:09.191Z,34.00
2018-09-05T08:01:38.946Z,33.42
2018-09-05T08:04:09.259Z,33.35
2018-09-05T08:06:38.951Z,33.98
2018-09-05T08:09:10.474Z,33.48
2018-09-05T08:11:40.190Z,32.65
2018-09-05T08:14:10.446Z,31.65
2018-09-05T08:16:40.167Z,32.67
2018-09-05T08:19:09.886Z,31.33
2018-09-05T08:21:39.591Z,31.97
2018-09-05T08:24:09.286Z,32.60
2018-09-05T08:26:39.176Z,31.80
2018-09-05T08:29:08.913Z,31.90
2018-09-05T08:31:38.771Z,32.10
2018-09-05T08:34:08.486Z,33.45
2018-09-05T08:36:38.270Z,32.88
2018-09-05T08:39:11.387Z,33.58
2018-09-05T08:41:41.092Z,33.33
2018-09-05T08:44:11.148Z,31.65
2018-09-05T08:46:40.976Z,33.55
2018-09-05T08:49:10.843Z,32.33
2018-09-05T08:51:40.559Z,32.35
2018-09-05T08:54:10.451Z,32.20
2018-09-05T08:56:40.156Z,30.85
2018-09-05T08:59:09.823Z,30.05
2018-09-05T09:01:39.546Z,31.93
2018-09-05T09:04:09.250Z,29.18
2018-09-05T09:06:38.927Z,29.42
2018-09-05T09:09:10.318Z,29.90
2018-09-05T09:11:40.055Z,31.20
2018-09-05T09:14:10.688Z,31.27
2018-09-05T09:16:40.427Z,29.10
2018-09-05T09:19:10.462Z,28.62
2018-09-05T09:21:40.170Z,27.07
2018-09-05T09:24:10.289Z,29.40
2018-09-05T09:26:39.974Z,29.63
2018-09-05T09:29:09.642Z,27.82
2018-09-05T09:31:39.342Z,29.95
2018-09-05T09:34:09.119Z,27.90
2018-09-05T09:36:38.846Z,26.97
2018-09-05T09:39:10.623Z,27.50
2018-09-05T09:41:40.559Z,26.40
2018-09-05T09:44:10.255Z,27.27
2018-09-05T09:46:40.363Z,27.60
2018-09-05T09:49:10.203Z,27.42
2018-09-05T09:51:39.952Z,27.77
2018-09-05T09:54:09.789Z,27.37
2018-09-05T09:56:39.569Z,25.65
2018-09-05T09:59:09.400Z,26.50
2018-09-05T10:01:44.619Z,26.68
2018-09-05T10:04:19.962Z,25.92
2018-09-05T10:06:54.715Z,26.05
2018-09-05T10:09:33.060Z,25.30
2018-09-05T10:12:08.411Z,26.00
2018-09-05T10:14:42.339Z,23.73
2018-09-05T10:17:17.344Z,26.35
2018-09-05T10:19:51.274Z,26.23
2018-09-05T10:22:20.983Z,26.57
2018-09-05T10:24:50.691Z,25.20
2018-09-05T10:27:20.404Z,23.70
2018-09-05T10:29:50.307Z,24.30
2018-09-05T10:32:20.190Z,25.40
2018-09-05T10:34:49.950Z,26.12
2018-09-05T10:37:20.001Z,25.05
2018-09-05T10:39:49.742Z,24.55
2018-09-05T10:42:19.483Z,24.70
2018-09-05T10:44:49.227Z,23.80
2018-09-05T10:47:18.940Z,23.65
2018-09-05T10:49:48.635Z,23.77
2018-09-05T10:52:18.349Z,24.05
2018-09-05T10:54:48.027Z,24.37
2018-09-05T10:57:17.755Z,24.52
2018-09-05T10:59:47.425Z,24.12
2018-09-05T11:02:17.166Z,24.07
2018-09-05T11:04:46.847Z,23.47
2018-09-05T11:07:16.551Z,23.87
2018-09-05T11:09:46.256Z,24.67
2018-09-05T11:12:15.967Z,24.05
2018-09-05T11:14:45.651Z,22.90
2018-09-05T11:17:15.378Z,23.18
2018-09-05T11:19:45.061Z,23.35
2018-09-05T11:22:14.811Z,21.82
2018-09-05T11:24:44.501Z,22.22
2018-09-05T11:27:14.231Z,21.55
2018-09-05T11:29:43.927Z,19.27
2018-09-05T11:32:13.651Z,21.17
2018-09-05T11:34:43.450Z,21.33
2018-09-05T11:37:13.158Z,20.20
2018-09-05T11:39:42.836Z,20.80
2018-09-05T11:42:12.531Z,21.00
2018-09-05T11:44:42.211Z,19.92
2018-09-05T11:47:11.910Z,19.80
2018-09-05T11:49:41.597Z,18.85
2018-09-05T11:52:11.287Z,18.60
2018-09-05T11:54:41.003Z,17.98
2018-09-05T11:57:10.779Z,17.85
2018-09-05T11:59:40.619Z,19.32
2018-09-05T12:02:10.841Z,19.15
2018-09-05T12:04:40.716Z,18.85
2018-09-05T12:07:10.980Z,18.32
2018-09-05T12:09:40.656Z,16.35
2018-09-05T12:12:10.994Z,16.42
2018-09-05T12:14:40.843Z,16.52
2018-09-05T12:17:10.907Z,15.43
2018-09-05T12:19:40.627Z,15.98
2018-09-05T12:22:10.344Z,16.10
2018-09-05T12:24:40.039Z,17.15
2018-09-05T12:27:09.920Z,17.30
2018-09-05T12:29:39.611Z,17.25
2018-09-05T12:32:09.661Z,16.57
2018-09-05T12:34:39.364Z,16.70
2018-09-05T12:37:09.042Z,16.02
2018-09-05T12:39:38.722Z,16.60
2018-09-05T12:42:08.413Z,17.55
2018-09-05T12:44:38.158Z,18.20
2018-09-05T12:47:08.007Z,17.40
2018-09-05T12:49:37.802Z,17.52
2018-09-05T12:52:07.871Z,15.40
2018-09-05T12:54:37.650Z,16.15
2018-09-05T12:57:07.391Z,16.62
2018-09-05T12:59:37.094Z,16.75
2018-09-05T13:02:07.066Z,15.53
2018-09-05T13:04:36.804Z,16.17
2018-09-05T13:07:06.540Z,15.50
2018-09-05T13:09:36.253Z,14.83
2018-09-05T13:12:06.043Z,16.15
2018-09-05T13:14:35.739Z,16.82
2018-09-05T13:17:05.482Z,16.10
2018-09-05T13:19:35.191Z,15.63
2018-09-05T13:22:05.239Z,16.90
2018-09-05T13:24:34.943Z,16.40
2018-09-05T13:27:04.707Z,15.58
2018-09-05T13:29:34.602Z,16.82
2018-09-05T13:32:04.285Z,16.90
2018-09-05T13:34:33.981Z,16.62
2018-09-05T13:37:03.656Z,15.78
2018-09-05T13:39:33.359Z,16.00
2018-09-05T13:42:03.043Z,15.63
2018-09-05T13:44:32.755Z,15.38
2018-09-05T13:47:02.443Z,14.78
2018-09-05T13:49:32.145Z,14.85
2018-09-05T13:52:04.845Z,14.13
2018-09-05T13:54:36.970Z,15.00
2018-09-05T13:57:07.027Z,14.70
2018-09-05T13:59:36.720Z,13.95
2018-09-05T14:02:06.800Z,15.28
2018-09-05T14:04:36.582Z,15.28
2018-09-05T14:07:06.615Z,14.38
2018-09-05T14:09:36.330Z,15.25
2018-09-05T14:12:06.758Z,13.95
2018-09-05T14:14:36.478Z,14.58
2018-09-05T14:17:06.188Z,14.47
2018-09-05T14:19:35.890Z,14.85
2018-09-05T14:22:05.567Z,13.90
2018-09-05T14:24:35.318Z,14.55
2018-09-05T14:27:05.031Z,14.50
2018-09-05T14:29:34.952Z,14.63
2018-09-05T14:32:04.644Z,14.73
2018-09-05T14:34:34.367Z,14.68
2018-09-05T14:37:04.058Z,14.83
2018-09-05T14:39:33.768Z,13.98
2018-09-05T14:42:03.447Z,14.13
2018-09-05T14:44:33.147Z,13.65
2018-09-05T14:47:02.866Z,13.80
2018-09-05T14:49:32.586Z,14.07
2018-09-05T14:52:02.284Z,13.45
2018-09-05T14:54:31.999Z,13.28
2018-09-05T14:57:02.063Z,13.38
2018-09-05T14:59:31.772Z,14.07
2018-09-05T15:02:01.515Z,14.80
2018-09-05T15:04:31.198Z,15.00
2018-09-05T15:07:00.955Z,14.10
2018-09-05T15:09:30.652Z,14.30
2018-09-05T15:12:00.365Z,13.80
2018-09-05T15:14:30.247Z,14.85
2018-09-05T15:16:59.974Z,14.07
2018-09-05T15:19:29.656Z,13.55
2018-09-05T15:21:59.735Z,13.35
2018-09-05T15:24:29.415Z,14.15
2018-09-05T15:26:59.158Z,14.07
2018-09-05T15:29:28.850Z,13.72
2018-09-05T15:31:58.693Z,13.25
2018-09-05T15:34:28.379Z,14.78
2018-09-05T15:36:58.126Z,13.53
2018-09-05T15:39:27.892Z,12.73
2018-09-05T15:41:57.770Z,12.53
2018-09-05T15:44:27.490Z,13.25
2018-09-05T15:46:57.275Z,13.50
2018-09-05T15:49:27.115Z,13.48
2018-09-05T15:51:56.842Z,12.82
2018-09-05T15:54:27.247Z,12.70
2018-09-05T15:56:56.951Z,13.53
2018-09-05T15:59:26.640Z,13.32
2018-09-05T16:01:56.375Z,12.85
2018-09-05T16:04:26.074Z,13.88
2018-09-05T16:06:55.797Z,12.98
2018-09-05T16:09:25.528Z,13.00
2018-09-05T16:11:55.435Z,13.88
2018-09-05T16:14:25.118Z,12.82
2018-09-05T16:16:54.887Z,12.58
2018-09-05T16:19:24.591Z,13.05
2018-09-05T16:21:54.358Z,13.20
2018-09-05T16:24:24.253Z,12.43
2018-09-05T16:26:53.959Z,13.18
2018-09-05T16:29:23.664Z,12.43
2018-09-05T16:31:53.422Z,12.90
2018-09-05T16:34:23.122Z,13.10
2018-09-05T16:36:53.131Z,12.58
2018-09-05T16:39:22.815Z,12.82
2018-09-05T16:41:52.587Z,13.00
2018-09-05T16:44:22.266Z,12.63
2018-09-05T16:46:51.974Z,13.08
2018-09-05T16:49:21.683Z,12.28
2018-09-05T16:51:51.407Z,12.85
2018-09-05T16:54:21.085Z,12.70
2018-09-05T16:56:50.794Z,12.98
2018-09-05T16:59:20.476Z,13.03
2018-09-05T17:01:50.199Z,12.70
2018-09-05T17:04:19.899Z,13.20
2018-09-05T17:06:49.607Z,12.65
2018-09-05T17:09:19.342Z,13.08
2018-09-05T17:11:49.118Z,12.85
2018-09-05T17:14:18.865Z,13.25
2018-09-05T17:16:48.618Z,14.40
2018-09-05T17:19:18.319Z,13.83
2018-09-05T17:21:48.047Z,14.03
2018-09-05T17:24:17.794Z,14.07
2018-09-05T17:26:47.495Z,14.40
2018-09-05T17:29:17.195Z,14.05
2018-09-05T17:31:46.903Z,14.00
2018-09-05T17:34:16.677Z,13.68
2018-09-05T17:36:46.350Z,14.10
2018-09-05T17:39:16.046Z,14.65
2018-09-05T17:41:45.848Z,14.58
2018-09-05T17:44:15.699Z,15.05
2018-09-05T17:46:45.383Z,14.98
2018-09-05T17:49:15.083Z,14.33
2018-09-05T17:51:44.775Z,15.60
2018-09-05T17:54:14.547Z,14.53
2018-09-05T17:56:44.259Z,14.78
2018-09-05T17:59:13.999Z,14.78
2018-09-05T18:01:43.764Z,14.95
2018-09-05T18:04:13.469Z,14.83
2018-09-05T18:06:43.142Z,15.10
2018-09-05T18:09:13.142Z,15.80
2018-09-05T18:11:42.867Z,15.30
2018-09-05T18:14:13.110Z,16.37
2018-09-05T18:16:42.784Z,16.80
2018-09-05T18:19:12.834Z,16.42
2018-09-05T18:21:42.519Z,16.07
2018-09-05T18:24:12.251Z,16.25
2018-09-05T18:26:41.985Z,15.75
2018-09-05T18:29:11.844Z,15.65
2018-09-05T18:31:41.557Z,15.18
2018-09-05T18:34:11.276Z,17.17
2018-09-05T18:36:40.979Z,16.25
2018-09-05T18:39:11.011Z,15.23
2018-09-05T18:41:40.679Z,16.95
2018-09-05T18:44:10.374Z,18.23
2018-09-05T18:46:40.027Z,16.73
2018-09-05T18:49:09.781Z,17.80
2018-09-05T18:51:39.499Z,18.35
2018-09-05T18:54:09.187Z,17.75
2018-09-05T18:56:38.888Z,17.60
2018-09-05T18:59:08.634Z,17.20
2018-09-05T19:01:38.354Z,17.95
2018-09-05T19:04:08.035Z,17.40
2018-09-05T19:06:37.698Z,16.90
2018-09-05T19:09:09.842Z,17.48
2018-09-05T19:11:39.845Z,19.05
2018-09-05T19:14:10.858Z,18.32
2018-09-05T19:16:40.694Z,18.12
2018-09-05T19:19:10.737Z,18.20
2018-09-05T19:21:40.434Z,18.10
2018-09-05T19:24:10.114Z,18.25
2018-09-05T19:26:39.794Z,19.20
2018-09-05T19:29:09.561Z,19.57
2018-09-05T19:31:41.172Z,18.90
2018-09-05T19:34:10.875Z,19.07
2018-09-05T19:36:40.834Z,20.32
2018-09-05T19:39:11.085Z,19.77
2018-09-05T19:41:40.773Z,20.30
2018-09-05T19:44:10.502Z,18.17
2018-09-05T19:46:40.226Z,21.45
2018-09-05T19:49:09.918Z,20.40
2018-09-05T19:51:39.802Z,20.90
2018-09-05T19:54:09.486Z,22.22
2018-09-05T19:56:39.185Z,21.33
2018-09-05T19:59:08.934Z,20.80
2018-09-05T20:01:38.807Z,22.00
2018-09-05T20:04:08.535Z,21.42
2018-09-05T20:06:38.230Z,22.22
2018-09-05T20:09:08.623Z,22.85
2018-09-05T20:11:38.374Z,22.90
2018-09-05T20:14:08.047Z,23.60
2018-09-05T20:16:37.760Z,21.37
2018-09-05T20:19:07.565Z,21.82
2018-09-05T20:21:37.262Z,24.18
2018-09-05T20:24:06.931Z,23.47
2018-09-05T20:26:36.642Z,23.65
2018-09-05T20:29:06.412Z,24.10
2018-09-05T20:31:36.126Z,24.95
2018-09-05T20:34:05.872Z,23.80
2018-09-05T20:36:35.622Z,24.02
2018-09-05T20:39:08.693Z,25.60
2018-09-05T20:41:38.380Z,26.30
2018-09-05T20:44:08.151Z,25.32
2018-09-05T20:46:38.155Z,26.20
2018-09-05T20:49:07.842Z,25.75
2018-09-05T20:51:37.571Z,27.27
2018-09-05T20:54:07.627Z,27.02
2018-09-05T20:56:37.326Z,24.87
2018-09-05T20:59:07.067Z,27.40
2018-09-05T21:01:36.776Z,27.30
2018-09-05T21:04:06.458Z,27.50
2018-09-05T21:06:36.146Z,27.80
2018-09-05T21:09:07.508Z,28.45
2018-09-05T21:11:37.199Z,28.02
2018-09-05T21:14:06.910Z,26.68
2018-09-05T21:16:36.846Z,27.37
2018-09-05T21:19:06.883Z,24.27
2018-09-05T21:21:36.574Z,28.12
2018-09-05T21:24:06.559Z,28.12
2018-09-05T21:26:36.358Z,26.27
2018-09-05T21:29:06.545Z,27.67
2018-09-05T21:31:36.222Z,27.90
2018-09-05T21:34:06.280Z,25.30
2018-09-05T21:36:35.991Z,26.30
2018-09-05T21:39:07.778Z,25.95
2018-09-05T21:41:37.655Z,25.72
2018-09-05T21:44:07.371Z,25.48
2018-09-05T21:46:37.092Z,25.57
2018-09-05T21:49:06.787Z,24.95
2018-09-05T21:51:36.479Z,23.45
2018-09-05T21:54:06.151Z,26.25
2018-09-05T21:56:35.899Z,27.05
2018-09-05T21:59:05.843Z,28.12
2018-09-05T22:01:35.578Z,27.02
2018-09-05T22:04:05.259Z,22.37
2018-09-05T22:06:34.985Z,26.02
2018-09-05T22:09:07.391Z,23.70
2018-09-05T22:11:37.489Z,26.70
2018-09-05T22:14:07.298Z,27.93
2018-09-05T22:16:37.015Z,25.60
2018-09-05T22:19:06.739Z,25.00
2018-09-05T22:21:36.511Z,27.65
2018-09-05T22:24:06.211Z,27.95
2018-09-05T22:26:35.907Z,19.77
2018-09-05T22:29:05.623Z,20.05
2018-09-05T22:31:35.294Z,26.20
2018-09-05T22:34:04.998Z,26.45
2018-09-05T22:36:34.715Z,27.45
2018-09-05T22:39:05.564Z,29.55
2018-09-05T22:41:35.274Z,29.55
2018-09-05T22:44:16.091Z,29.85
2018-09-05T22:46:57.063Z,29.82
2018-09-05T22:49:57.316Z,28.80
2018-09-05T22:52:46.294Z,30.45
2018-09-05T22:56:38.055Z,30.82
2018-09-05T23:02:24.683Z,27.55
2018-09-05T23:05:06.213Z,30.90
2018-09-05T23:08:45.475Z,27.98
2018-09-05T23:11:57.233Z,30.55
2018-09-05T23:14:39.354Z,30.75
2018-09-05T23:19:16.487Z,29.77
2018-09-05T23:21:46.163Z,31.90
2018-09-05T23:24:15.855Z,31.75
2018-09-05T23:26:45.871Z,30.32
2018-09-05T23:29:15.563Z,33.75
2018-09-05T23:31:45.255Z,32.38
2018-09-05T23:34:14.981Z,33.53
2018-09-05T23:36:44.655Z,32.10
2018-09-05T23:39:14.358Z,31.93
2018-09-05T23:41:44.071Z,33.13
2018-09-05T23:44:14.103Z,33.83
2018-09-05T23:46:43.819Z,34.53
2018-09-05T23:49:13.887Z,33.73
2018-09-05T23:51:43.616Z,32.75
2018-09-05T23:54:13.319Z,34.70
2018-09-05T23:56:43.096Z,33.98
2018-09-05T23:59:12.779Z,34.88
